Time;durP1;ratioP1;P1;durP2;ratioP2;P2;SDS_P1;SDS_P2;PMS_P1;PMS_P2;Temp;Humidity;BMP_temperature;BMP_pressure;BME280_temperature;BME280_humidity;BME280_pressure;Samples;Min_cycle;Max_cycle;Signal;HPM_P1;HPM_P2
2022/10/15 00:02:10;;;;;;;65.43;36.55;;;;;;;-148.88;100.00;75135.41;4977733;28;20031;-88
2022/10/15 00:04:35;;;;;;;65.22;35.97;;;;;;;-148.88;100.00;75129.31;4976859;28;20107;-89
2022/10/15 00:07:01;;;;;;;70.15;36.97;;;;;;;-148.88;100.00;75127.28;4975930;28;20508;-89
2022/10/15 00:09:26;;;;;;;65.65;36.63;;;;;;;-148.88;100.00;75125.25;4977087;28;20110;-89
2022/10/15 00:11:52;;;;;;;67.00;36.58;;;;;;;-148.88;100.00;75137.44;4975557;28;20058;-88
2022/10/15 00:14:17;;;;;;;74.18;39.38;;;;;;;-148.88;100.00;75137.44;4976127;28;20023;-90
2022/10/15 00:16:43;;;;;;;66.75;35.72;;;;;;;-148.88;100.00;75131.34;4976806;28;20086;-89
2022/10/15 00:19:09;;;;;;;62.65;34.55;;;;;;;-148.88;100.00;75133.38;4974898;28;20110;-88
2022/10/15 00:21:34;;;;;;;62.55;35.08;;;;;;;-148.88;100.00;75131.34;4975768;28;20027;-89
2022/10/15 00:24:00;;;;;;;67.40;36.42;;;;;;;-148.88;100.00;75131.34;4975061;28;20023;-89
2022/10/15 00:26:27;;;;;;;60.72;34.15;;;;;;;-148.88;100.00;75127.28;4975199;28;20441;-89
2022/10/15 00:28:55;;;;;;;64.25;35.15;;;;;;;-148.88;100.00;75127.28;4975382;28;20023;-89
2022/10/15 00:31:23;;;;;;;66.38;35.60;;;;;;;-148.88;100.00;75129.31;4974870;28;20023;-89
2022/10/15 00:33:49;;;;;;;65.93;36.30;;;;;;;-148.88;100.00;75135.41;4974795;28;20366;-89
2022/10/15 00:36:18;;;;;;;65.13;35.35;;;;;;;-148.88;100.00;75127.28;4974858;28;20034;-86
2022/10/15 00:38:43;;;;;;;66.15;35.92;;;;;;;-148.88;100.00;75133.38;4974780;28;20030;-89
2022/10/15 00:41:15;;;;;;;60.40;34.03;;;;;;;-148.88;100.00;75127.28;4974991;28;20050;-89
2022/10/15 00:43:40;;;;;;;61.83;33.95;;;;;;;-148.88;100.00;75135.41;4974727;28;20027;-89
2022/10/15 00:46:14;;;;;;;62.80;34.80;;;;;;;-148.88;100.00;75131.34;4975360;28;20499;-89
2022/10/15 00:48:39;;;;;;;63.17;34.17;;;;;;;-148.88;100.00;75129.31;4975202;28;20026;-89
2022/10/15 00:51:05;;;;;;;71.88;35.75;;;;;;;-148.88;100.00;75135.41;4974393;28;20448;-89
2022/10/15 00:53:31;;;;;;;63.22;35.83;;;;;;;-148.88;100.00;75133.38;4975031;28;20049;-90
2022/10/15 00:55:57;;;;;;;62.88;34.17;;;;;;;-148.88;100.00;75133.38;4974850;28;20026;-88
2022/10/15 00:58:27;;;;;;;68.57;35.40;;;;;;;-148.88;100.00;75131.34;4976076;28;20035;-88
2022/10/15 01:00:55;;;;;;;64.65;34.75;;;;;;;-148.88;100.00;75125.25;4974800;28;20034;-88
2022/10/15 01:03:22;;;;;;;69.70;36.03;;;;;;;-148.88;100.00;75127.28;4974152;28;20054;-89
2022/10/15 01:05:50;;;;;;;71.57;35.28;;;;;;;-148.88;100.00;75119.16;4974299;28;20141;-89
2022/10/15 01:08:15;;;;;;;71.18;35.67;;;;;;;-148.88;100.00;75123.22;4974058;28;20023;-88
2022/10/15 01:10:57;;;;;;;68.50;34.53;;;;;;;-148.88;100.00;75131.34;4974288;28;20044;-88
2022/10/15 01:13:25;;;;;;;66.85;34.00;;;;;;;-148.88;100.00;75129.31;4975512;28;20389;-89
2022/10/15 01:16:12;;;;;;;63.78;33.78;;;;;;;-148.88;100.00;75125.25;4974172;28;20026;-88
2022/10/15 01:18:51;;;;;;;59.38;32.58;;;;;;;-148.88;100.00;75123.22;4974151;28;20441;-89
2022/10/15 01:21:23;;;;;;;60.00;33.47;;;;;;;-148.88;100.00;75129.31;4974612;28;20396;-90
2022/10/15 01:23:59;;;;;;;61.95;33.33;;;;;;;-148.88;100.00;75135.41;4975269;28;20034;-89
2022/10/15 01:26:30;;;;;;;58.25;32.45;;;;;;;-148.88;100.00;75135.41;4975755;28;20034;-89
2022/10/15 01:29:01;;;;;;;61.40;32.85;;;;;;;-148.88;100.00;75143.53;4973868;28;20029;-89
2022/10/15 01:31:48;;;;;;;55.13;30.30;;;;;;;-148.88;100.00;75139.47;4974163;28;20097;-89
2022/10/15 01:34:21;;;;;;;68.00;33.63;;;;;;;-148.88;100.00;75155.72;4975290;28;20040;-89
2022/10/15 01:37:06;;;;;;;64.13;32.78;;;;;;;-148.88;100.00;75163.84;4974606;28;20121;-89
2022/10/15 01:39:38;;;;;;;71.75;34.72;;;;;;;-148.88;100.00;75184.16;4974760;28;20026;-88
2022/10/15 01:42:30;;;;;;;72.80;35.30;;;;;;;-148.88;100.00;75192.28;4973830;28;20084;-89
2022/10/15 01:45:09;;;;;;;69.32;34.15;;;;;;;-148.88;100.00;75216.66;4965974;28;20031;-89
2022/10/15 01:47:42;;;;;;;80.82;35.90;;;;;;;-148.88;100.00;75220.72;4973821;28;20098;-89
2022/10/15 01:50:11;;;;;;;101.82;39.83;;;;;;;-148.88;100.00;75212.59;4973459;28;20093;-87
2022/10/15 01:52:39;;;;;;;112.40;43.35;;;;;;;-148.88;100.00;75188.22;4973384;28;20033;-88
2022/10/15 01:55:09;;;;;;;113.85;44.22;;;;;;;-148.88;100.00;75182.13;4973573;28;20061;-88
2022/10/15 01:57:41;;;;;;;106.97;41.60;;;;;;;-148.88;100.00;75178.06;4973390;28;20027;-88
2022/10/15 02:00:07;;;;;;;118.93;44.35;;;;;;;-148.88;100.00;75167.91;4974428;28;20478;-88
2022/10/15 02:02:33;;;;;;;124.88;46.00;;;;;;;-148.88;100.00;75159.78;4973507;28;20485;-88
2022/10/15 02:04:58;;;;;;;128.80;47.33;;;;;;;-148.88;100.00;75155.72;4974545;28;20027;-89
2022/10/15 02:07:48;;;;;;;109.72;45.65;;;;;;;-148.88;100.00;75151.66;4989505;28;20019;-88
2022/10/15 02:10:26;;;;;;;116.47;46.25;;;;;;;-148.88;100.00;75151.66;4973335;28;20063;-88
2022/10/15 02:13:08;;;;;;;98.53;41.85;;;;;;;-148.88;100.00;75139.47;4973245;28;20117;-88
2022/10/15 02:15:49;;;;;;;92.18;39.80;;;;;;;-148.88;100.00;75141.50;4974689;28;20034;-89
2022/10/15 02:18:26;;;;;;;93.55;40.70;;;;;;;-148.88;100.00;75139.47;4974378;28;20031;-87
2022/10/15 02:21:07;;;;;;;89.18;38.80;;;;;;;-148.88;100.00;75147.59;4973274;28;20073;-88
2022/10/15 02:23:40;;;;;;;82.32;37.90;;;;;;;-148.88;100.00;75151.66;4974488;28;20062;-89
2022/10/15 02:26:08;;;;;;;79.80;36.25;;;;;;;-148.88;100.00;75159.78;4973148;28;20389;-88
2022/10/15 02:28:37;;;;;;;87.05;37.25;;;;;;;-148.88;100.00;75147.59;4973319;28;20035;-88
2022/10/15 02:31:03;;;;;;;83.22;37.72;;;;;;;-148.88;100.00;75153.69;4974152;28;20027;-89
2022/10/15 02:33:32;;;;;;;78.53;37.25;;;;;;;-148.88;100.00;75163.84;4973747;28;20039;-89
2022/10/15 02:35:58;;;;;;;80.70;36.83;;;;;;;-148.88;100.00;75159.78;4973888;28;20038;-88
2022/10/15 02:38:26;;;;;;;80.50;36.40;;;;;;;-148.88;100.00;75149.63;4972949;28;20122;-88
2022/10/15 02:40:53;;;;;;;79.25;36.53;;;;;;;-148.88;100.00;75145.56;4973418;28;20477;-88
2022/10/15 02:43:22;;;;;;;87.20;38.03;;;;;;;-148.88;100.00;75147.59;4973195;28;20166;-88
2022/10/15 02:45:48;;;;;;;88.55;38.67;;;;;;;-148.88;100.00;75143.53;4974189;28;20046;-89
2022/10/15 02:48:17;;;;;;;85.22;36.85;;;;;;;-148.88;100.00;75139.47;4973071;28;20405;-89
2022/10/15 02:50:42;;;;;;;87.68;36.70;;;;;;;-148.88;100.00;75143.53;4973770;28;20113;-88
2022/10/15 02:53:08;;;;;;;84.28;38.60;;;;;;;-148.88;100.00;75143.53;4972928;28;20030;-88
2022/10/15 02:55:34;;;;;;;85.47;39.17;;;;;;;-148.88;100.00;75139.47;4973408;28;20035;-89
2022/10/15 02:57:59;;;;;;;86.10;38.85;;;;;;;-148.88;100.00;75147.59;4974156;28;20030;-89
2022/10/15 03:00:24;;;;;;;92.57;39.17;;;;;;;-148.88;100.00;75145.56;4973238;28;20477;-89
2022/10/15 03:02:50;;;;;;;88.40;39.67;;;;;;;-148.88;100.00;75167.91;4972916;28;20035;-89
2022/10/15 03:05:15;;;;;;;83.82;38.45;;;;;;;-148.88;100.00;75167.91;4972982;28;20034;-88
2022/10/15 03:07:41;;;;;;;87.07;39.35;;;;;;;-148.88;100.00;75167.91;4973245;28;20023;-86
2022/10/15 03:10:06;;;;;;;76.03;36.63;;;;;;;-148.88;100.00;75159.78;4976215;28;20019;-89
2022/10/15 03:12:32;;;;;;;82.68;36.40;;;;;;;-148.88;100.00;75190.25;4976502;28;20023;-87
2022/10/15 03:14:58;;;;;;;79.40;36.65;;;;;;;-148.88;100.00;75188.22;4978068;28;20026;-85
2022/10/15 03:17:23;;;;;;;78.65;35.67;;;;;;;-148.88;100.00;75192.28;4978601;28;20026;-85
2022/10/15 03:19:48;;;;;;;76.65;34.67;;;;;;;-148.88;100.00;75200.41;4977026;28;20041;-86
2022/10/15 03:22:14;;;;;;;86.32;36.80;;;;;;;-148.88;100.00;75204.47;4977575;28;20046;-87
2022/10/15 03:24:39;;;;;;;86.22;37.65;;;;;;;-148.88;100.00;75194.31;4977383;28;20034;-86
2022/10/15 03:27:05;;;;;;;97.13;39.45;;;;;;;-148.88;100.00;75192.28;4977522;28;20404;-85
2022/10/15 03:29:30;;;;;;;82.82;38.53;;;;;;;-148.88;100.00;75176.03;4976660;28;20476;-85
2022/10/15 03:31:56;;;;;;;90.15;39.03;;;;;;;-148.88;100.00;75182.13;4977880;28;20381;-84
2022/10/15 03:34:21;;;;;;;92.75;39.17;;;;;;;-148.88;100.00;75188.22;4978325;28;20029;-86
2022/10/15 03:36:46;;;;;;;90.63;37.83;;;;;;;-148.88;100.00;75184.16;4977299;28;20035;-86
2022/10/15 03:39:12;;;;;;;91.43;38.00;;;;;;;-148.88;100.00;75188.22;4980024;28;20113;-86
2022/10/15 03:41:38;;;;;;;97.60;40.53;;;;;;;-148.88;100.00;75180.09;4977248;28;20113;-87
2022/10/15 03:44:07;;;;;;;94.75;40.20;;;;;;;-148.88;100.00;75171.97;4976135;28;20023;-88
2022/10/15 03:46:33;;;;;;;118.20;42.17;;;;;;;-148.88;100.00;75176.03;4976047;28;20122;-88
2022/10/15 03:48:59;;;;;;;101.38;40.58;;;;;;;-148.88;100.00;75167.91;4977020;28;20161;-87
2022/10/15 03:51:24;;;;;;;108.03;42.10;;;;;;;-148.88;100.00;75171.97;4976867;28;20073;-88
2022/10/15 03:53:50;;;;;;;109.80;42.60;;;;;;;-148.88;100.00;75174.00;4975415;28;20401;-88
2022/10/15 03:56:15;;;;;;;107.00;42.75;;;;;;;-148.88;100.00;75176.03;4975718;28;20507;-86
2022/10/15 03:58:41;;;;;;;103.88;40.30;;;;;;;-148.88;100.00;75184.16;4977098;28;20434;-88
2022/10/15 04:01:15;;;;;;;99.63;40.88;;;;;;;-148.88;100.00;75184.16;4977097;28;20552;-86
2022/10/15 04:03:41;;;;;;;93.07;39.47;;;;;;;-148.88;100.00;75192.28;4978804;28;20041;-85
2022/10/15 04:06:07;;;;;;;94.07;37.90;;;;;;;-148.88;100.00;75186.19;4979232;28;20034;-86
2022/10/15 04:08:32;;;;;;;100.90;41.22;;;;;;;-148.88;100.00;75200.41;4978945;28;20050;-85
2022/10/15 04:10:58;;;;;;;86.57;37.67;;;;;;;-148.88;100.00;75196.34;4978132;28;20485;-84
2022/10/15 04:13:24;;;;;;;93.18;37.28;;;;;;;-148.88;100.00;75200.41;4979250;28;20034;-85
2022/10/15 04:15:50;;;;;;;85.65;36.53;;;;;;;-148.88;100.00;75202.44;4979344;28;20058;-85
2022/10/15 04:18:15;;;;;;;88.68;38.70;;;;;;;-148.88;100.00;75204.47;4978807;28;20022;-84
2022/10/15 04:20:41;;;;;;;87.95;37.88;;;;;;;-148.88;100.00;75214.63;4976907;28;20018;-85
2022/10/15 04:23:10;;;;;;;81.40;36.03;;;;;;;-148.88;100.00;75210.56;4974641;28;20022;-85
2022/10/15 04:25:39;;;;;;;86.60;37.15;;;;;;;-148.88;100.00;75216.66;4977594;28;20110;-85
2022/10/15 04:28:07;;;;;;;77.70;34.55;;;;;;;-148.88;100.00;75224.78;4976583;28;20056;-86
2022/10/15 04:30:33;;;;;;;75.75;34.70;;;;;;;-148.88;100.00;75232.91;4977361;28;20023;-85
2022/10/15 04:32:58;;;;;;;77.05;34.80;;;;;;;-148.88;100.00;75253.22;4974835;28;20026;-86
2022/10/15 04:35:24;;;;;;;76.47;35.95;;;;;;;-148.88;100.00;75245.09;4975715;28;20097;-85
2022/10/15 04:37:50;;;;;;;70.18;33.15;;;;;;;-148.88;100.00;75261.34;4976127;28;20416;-88
2022/10/15 04:40:15;;;;;;;66.60;32.03;;;;;;;-148.88;100.00;75267.44;4974347;28;20077;-87
2022/10/15 04:42:41;;;;;;;68.50;31.88;;;;;;;-148.88;100.00;75265.41;4974848;28;20071;-88
2022/10/15 04:45:07;;;;;;;67.10;31.38;;;;;;;-148.88;100.00;75277.59;4974546;28;20019;-86
2022/10/15 04:47:33;;;;;;;66.00;30.30;;;;;;;-148.88;100.00;75281.66;4974598;28;20030;-87
2022/10/15 04:49:58;;;;;;;67.38;31.42;;;;;;;-148.88;100.00;75279.59;4974656;28;20118;-87
2022/10/15 04:52:23;;;;;;;64.45;32.63;;;;;;;-148.88;100.00;75285.69;4975721;28;20033;-84
2022/10/15 04:54:49;;;;;;;66.70;31.15;;;;;;;-148.88;100.00;75277.59;4977724;28;20508;-85
2022/10/15 04:57:15;;;;;;;76.65;35.15;;;;;;;-148.88;100.00;75281.66;4976765;28;20031;-85
2022/10/15 04:59:41;;;;;;;72.80;33.50;;;;;;;-148.88;100.00;75285.69;4976037;28;20023;-82
2022/10/15 05:02:06;;;;;;;65.20;32.08;;;;;;;-148.88;100.00;75293.81;4975874;28;20019;-84
2022/10/15 05:04:32;;;;;;;66.60;32.38;;;;;;;-148.88;100.00;75299.91;4977140;28;20055;-84
2022/10/15 05:06:57;;;;;;;66.97;32.67;;;;;;;-148.88;100.00;75293.81;4977182;28;20026;-85
2022/10/15 05:09:22;;;;;;;79.13;33.60;;;;;;;-148.88;100.00;75293.81;4975632;28;20026;-86
2022/10/15 05:11:48;;;;;;;75.13;35.10;;;;;;;-148.88;100.00;75297.88;4976385;28;20048;-85
2022/10/15 05:14:14;;;;;;;76.97;35.58;;;;;;;-148.88;100.00;75287.72;4977846;28;20053;-85
2022/10/15 05:16:39;;;;;;;67.72;32.45;;;;;;;-148.88;100.00;75289.75;4975790;28;20034;-86
2022/10/15 05:19:06;;;;;;;89.25;38.55;;;;;;;-148.88;100.00;75295.84;4977059;28;20029;-85
2022/10/15 05:21:33;;;;;;;99.60;40.72;;;;;;;-148.88;100.00;75275.56;4977416;28;20030;-85
2022/10/15 05:24:00;;;;;;;106.07;41.53;;;;;;;-148.88;100.00;75275.56;4975830;28;20026;-87
2022/10/15 05:26:27;;;;;;;92.60;39.35;;;;;;;-148.88;100.00;75263.38;4976290;28;20098;-87
2022/10/15 05:28:55;;;;;;;98.43;40.53;;;;;;;-148.88;100.00;75265.41;4973996;28;20018;-88
2022/10/15 05:31:25;;;;;;;86.53;37.92;;;;;;;-148.88;100.00;75265.41;4974373;28;20062;-87
2022/10/15 05:33:52;;;;;;;92.20;38.50;;;;;;;-148.88;100.00;75267.44;4975464;28;20023;-89
2022/10/15 05:36:24;;;;;;;90.60;37.65;;;;;;;-148.88;100.00;75257.28;4973836;28;20130;-87
2022/10/15 05:38:55;;;;;;;91.35;38.38;;;;;;;-148.88;100.00;75265.41;4973823;28;20019;-84
2022/10/15 05:41:21;;;;;;;89.05;38.45;;;;;;;-148.88;100.00;75265.41;4978285;28;20038;-84
2022/10/15 05:43:51;;;;;;;81.50;36.60;;;;;;;-148.88;100.00;75273.53;4980293;28;20022;-84
2022/10/15 05:46:17;;;;;;;86.57;38.40;;;;;;;-148.88;100.00;75273.53;4975413;28;20030;-87
2022/10/15 05:48:46;;;;;;;83.65;37.25;;;;;;;-148.88;100.00;75277.59;4973670;28;20026;-87
2022/10/15 05:51:12;;;;;;;89.97;38.47;;;;;;;-148.88;100.00;75273.53;4974069;28;20063;-87
2022/10/15 05:53:39;;;;;;;85.28;38.10;;;;;;;-148.88;100.00;75275.56;4974154;28;20058;-87
2022/10/15 05:56:10;;;;;;;91.82;39.28;;;;;;;-148.88;100.00;75277.59;4977594;28;20069;-86
2022/10/15 05:58:35;;;;;;;81.13;35.70;;;;;;;-148.88;100.00;75277.59;4979161;28;20077;-84
2022/10/15 06:01:06;;;;;;;82.60;37.28;;;;;;;-148.88;100.00;75277.59;4980340;28;20030;-88
2022/10/15 06:03:32;;;;;;;81.43;36.90;;;;;;;-148.88;100.00;75279.59;4978757;28;20065;-86
2022/10/15 06:05:58;;;;;;;85.15;37.72;;;;;;;-148.88;100.00;75277.59;4974455;28;20497;-87
2022/10/15 06:08:23;;;;;;;82.00;37.28;;;;;;;-148.88;100.00;75281.66;4975285;28;20030;-87
2022/10/15 06:10:49;;;;;;;87.28;39.10;;;;;;;-148.88;100.00;75277.59;4975387;28;20035;-88
2022/10/15 06:13:18;;;;;;;81.70;36.88;;;;;;;-148.88;100.00;75281.66;4974433;28;20026;-86
2022/10/15 06:15:45;;;;;;;97.80;39.85;;;;;;;-148.88;100.00;75279.59;4975267;28;20073;-87
2022/10/15 06:18:14;;;;;;;89.53;39.63;;;;;;;-148.88;100.00;75281.66;4975085;28;20030;-83
2022/10/15 06:20:43;;;;;;;100.03;41.60;;;;;;;-148.88;100.00;75281.66;4975784;28;20023;-84
2022/10/15 06:23:10;;;;;;;90.72;40.85;;;;;;;-148.88;100.00;75269.47;4976402;28;20027;-88
2022/10/15 06:25:35;;;;;;;95.18;40.95;;;;;;;-148.88;100.00;75269.47;4975047;28;20030;-87
2022/10/15 06:28:05;;;;;;;107.43;46.05;;;;;;;-148.88;100.00;75269.47;4975076;28;20031;-87
2022/10/15 06:30:31;;;;;;;107.30;45.13;;;;;;;-148.88;100.00;75261.34;4974200;28;20500;-88
2022/10/15 06:32:57;;;;;;;102.78;44.40;;;;;;;-148.88;100.00;75253.22;4974288;28;20035;-88
2022/10/15 06:35:24;;;;;;;112.57;45.28;;;;;;;-148.88;100.00;75251.19;4973958;28;20018;-86
2022/10/15 06:37:49;;;;;;;102.00;45.63;;;;;;;-148.88;100.00;75253.22;4973485;28;20104;-86
2022/10/15 06:40:21;;;;;;;114.28;47.15;;;;;;;-148.88;100.00;75253.22;4973418;28;20101;-86
2022/10/15 06:42:46;;;;;;;115.10;46.35;;;;;;;-148.88;100.00;75257.28;4973574;28;20019;-87
2022/10/15 06:45:12;;;;;;;116.57;47.45;;;;;;;-148.88;100.00;75255.25;4976149;28;20027;-86
2022/10/15 06:47:41;;;;;;;113.88;46.10;;;;;;;-148.88;100.00;75257.28;4977803;28;20078;-87
2022/10/15 06:50:06;;;;;;;114.07;47.70;;;;;;;-148.88;100.00;75253.22;4977042;28;20113;-86
2022/10/15 06:52:32;;;;;;;118.25;47.70;;;;;;;-148.88;100.00;75249.16;4976640;28;20427;-85
2022/10/15 06:54:59;;;;;;;108.78;47.08;;;;;;;-148.88;100.00;75241.03;4977334;28;20135;-86
2022/10/15 06:57:25;;;;;;;126.20;48.65;;;;;;;-148.88;100.00;75243.06;4976674;28;20023;-86
2022/10/15 06:59:51;;;;;;;105.55;45.72;;;;;;;-148.88;100.00;75236.97;4977223;28;20018;-86
2022/10/15 07:02:18;;;;;;;125.93;48.08;;;;;;;-148.88;100.00;75241.03;4976439;28;20034;-88
2022/10/15 07:04:44;;;;;;;130.52;51.03;;;;;;;-148.88;100.00;75241.03;4976509;28;20045;-86
2022/10/15 07:07:12;;;;;;;138.40;51.47;;;;;;;-148.88;100.00;75228.84;4977552;28;20109;-85
2022/10/15 07:09:37;;;;;;;137.70;49.25;;;;;;;-148.88;100.00;75232.91;4976725;28;20047;-86
2022/10/15 07:12:03;;;;;;;137.30;49.58;;;;;;;-148.88;100.00;75224.78;4978197;28;20062;-86
2022/10/15 07:14:29;;;;;;;136.85;48.78;;;;;;;-148.88;100.00;75228.84;4977323;28;20033;-85
2022/10/15 07:17:00;;;;;;;136.48;50.30;;;;;;;-148.88;100.00;75220.72;4977161;28;20027;-84
2022/10/15 07:19:33;;;;;;;142.02;51.58;;;;;;;-148.88;100.00;75214.63;4977125;28;20022;-86
2022/10/15 07:21:58;;;;;;;146.48;50.63;;;;;;;-148.88;100.00;75212.59;4977080;28;20031;-87
2022/10/15 07:24:26;;;;;;;147.98;52.38;;;;;;;-148.88;100.00;75208.53;4977672;28;20035;-87
2022/10/15 07:26:52;;;;;;;160.20;54.25;;;;;;;-148.88;100.00;75200.41;4977918;28;20109;-87
2022/10/15 07:29:17;;;;;;;162.98;55.30;;;;;;;-148.88;100.00;75196.34;4976438;28;20110;-84
2022/10/15 07:31:45;;;;;;;156.07;56.28;;;;;;;-148.88;100.00;75196.34;4977545;28;20058;-83
2022/10/15 07:34:16;;;;;;;170.52;57.10;;;;;;;-148.88;100.00;75192.28;4978470;28;20474;-85
2022/10/15 07:36:47;;;;;;;161.38;57.17;;;;;;;-148.88;100.00;75188.22;4978342;28;20053;-85
2022/10/15 07:39:13;;;;;;;169.98;57.40;;;;;;;-148.88;100.00;75184.16;4978097;28;20045;-85
2022/10/15 07:41:38;;;;;;;176.88;56.70;;;;;;;-148.88;100.00;75178.06;4978250;28;20474;-84
2022/10/15 07:44:04;;;;;;;176.25;59.35;;;;;;;-148.88;100.00;75186.19;4977448;28;20089;-85
2022/10/15 07:46:29;;;;;;;187.15;58.35;;;;;;;-148.88;100.00;75184.16;4977045;28;20034;-86
2022/10/15 07:48:55;;;;;;;178.38;58.42;;;;;;;-148.88;100.00;75171.97;4977565;28;20023;-85
2022/10/15 07:51:20;;;;;;;174.18;56.90;;;;;;;-148.88;100.00;75165.88;4979698;28;20385;-84
2022/10/15 07:53:46;;;;;;;184.27;58.58;;;;;;;-148.88;100.00;75163.84;4980127;28;20500;-83
2022/10/15 07:56:13;;;;;;;175.57;56.50;;;;;;;-148.88;100.00;75143.53;4980517;28;20115;-84
2022/10/15 07:58:39;;;;;;;178.18;55.13;;;;;;;-148.88;100.00;75145.56;4978466;28;20054;-85
2022/10/15 08:01:06;;;;;;;190.43;59.55;;;;;;;-148.88;100.00;75143.53;4976552;28;20070;-87
2022/10/15 08:03:32;;;;;;;184.23;58.42;;;;;;;-148.88;100.00;75139.47;4976540;28;20062;-84
2022/10/15 08:06:03;;;;;;;178.40;58.28;;;;;;;-148.88;100.00;75139.47;4978371;28;20026;-85
2022/10/15 08:08:35;;;;;;;177.45;57.13;;;;;;;-148.88;100.00;75145.56;4979224;28;20062;-83
2022/10/15 08:11:05;;;;;;;158.13;53.22;;;;;;;-148.88;100.00;75147.59;4978201;28;20030;-86
2022/10/15 08:13:30;;;;;;;162.07;52.55;;;;;;;-148.88;100.00;75147.59;4978012;28;20030;-84
2022/10/15 08:15:57;;;;;;;173.68;56.88;;;;;;;-148.88;100.00;75143.53;4978042;28;20118;-87
2022/10/15 08:18:36;;;;;;;;;;;;;;;;;;;;;
2022/10/15 08:21:05;;;;;;;170.50;54.17;;;;;;;-148.88;100.00;75139.47;4979317;28;20019;-84
2022/10/15 08:23:34;;;;;;;165.30;52.83;;;;;;;-148.88;100.00;75133.38;4977098;28;20547;-83
2022/10/15 08:26:09;;;;;;;172.48;56.00;;;;;;;-148.88;100.00;75127.28;4975673;28;20023;-91
2022/10/15 08:28:35;;;;;;;166.23;55.10;;;;;;;-148.88;100.00;75119.16;4978387;28;20082;-90
2022/10/15 08:31:01;;;;;;;159.63;53.10;;;;;;;-148.88;100.00;75111.03;4977854;28;20027;-89
2022/10/15 08:33:27;;;;;;;158.63;52.85;;;;;;;-148.88;100.00;75111.03;4978602;28;20521;-89
2022/10/15 08:35:53;;;;;;;160.07;53.55;;;;;;;-148.88;100.00;75092.78;4977447;28;20061;-88
2022/10/15 08:38:29;;;;;;;164.88;54.17;;;;;;;-148.88;100.00;75078.56;4976984;28;20034;-85
2022/10/15 08:40:58;;;;;;;169.70;55.42;;;;;;;-148.88;100.00;75074.50;4976537;28;20035;-88
2022/10/15 08:43:33;;;;;;;154.40;53.90;;;;;;;-148.88;100.00;75066.38;4977099;28;20498;-90
2022/10/15 08:46:21;;;;;;;159.45;55.33;;;;;;;-148.88;100.00;75048.09;4977211;28;20026;-89
2022/10/15 08:52:29;;;;;;;132.77;51.97;;;;;;;-148.88;100.00;75001.38;4980015;28;20389;-91
2022/10/15 08:55:09;;;;;;;118.20;49.95;;;;;;;-148.88;100.00;74985.13;4963387;28;20047;-88
2022/10/15 08:57:48;;;;;;;114.35;48.78;;;;;;;-148.88;100.00;74979.03;4974563;28;20477;-84
2022/10/15 09:00:27;;;;;;;115.75;49.03;;;;;;;-148.88;100.00;74932.34;4975189;28;20022;-86
2022/10/15 09:03:12;;;;;;;94.63;43.55;;;;;;;-148.88;100.00;74920.16;4981710;28;20030;-86
2022/10/15 09:05:56;;;;;;;84.78;42.72;;;;;;;-148.88;100.00;74924.22;4974596;28;20046;-87
2022/10/15 09:08:30;;;;;;;;;;;;;;;-148.88;100.00;74901.88;4980880;28;20545;-85
2022/10/15 09:11:18;;;;;;;74.88;38.70;;;;;;;-148.88;100.00;74910.00;4976653;28;19914;-89
2022/10/15 09:13:45;;;;;;;63.92;35.63;;;;;;;-148.88;100.00;74863.28;4980491;28;20035;-89
2022/10/15 09:19:22;;;;;;;62.28;36.38;;;;;;;-148.88;100.00;74818.59;4963803;28;20509;-87
2022/10/15 09:21:50;;;;;;;64.38;35.83;;;;;;;-148.88;100.00;74810.50;4975951;28;20026;-86
2022/10/15 09:24:27;;;;;;;57.83;34.50;;;;;;;-148.88;100.00;74824.69;4978998;28;20115;-90
2022/10/15 09:27:06;;;;;;;47.13;29.50;;;;;;;-148.88;100.00;74814.53;4977904;28;20113;-88
2022/10/15 09:29:37;;;;;;;42.92;28.33;;;;;;;-148.88;100.00;74802.38;4974335;28;20027;-85
2022/10/15 09:32:31;;;;;;;42.03;26.92;;;;;;;-148.88;100.00;74814.53;4975449;28;20058;-87
2022/10/15 09:35:04;;;;;;;36.88;25.70;;;;;;;-148.88;100.00;74830.78;4972998;28;20094;-87
2022/10/15 09:37:50;;;;;;;;;;;;;;;-148.88;100.00;74822.66;4976004;28;20030;-83
2022/10/15 09:40:34;;;;;;;35.83;22.83;;;;;;;-148.88;100.00;74830.78;4945289;28;19961;-86
2022/10/15 09:43:01;;;;;;;32.10;22.73;;;;;;;-148.88;100.00;74834.84;4975735;28;20433;-86
2022/10/15 09:45:27;;;;;;;33.00;21.98;;;;;;;-148.88;100.00;74832.81;4979074;28;20026;-87
2022/10/15 09:47:59;;;;;;;31.85;21.75;;;;;;;-148.88;100.00;74814.53;4977529;28;20073;-89
2022/10/15 09:51:05;;;;;;;36.22;23.95;;;;;;;-148.88;100.00;74806.44;4973554;28;20026;-87
2022/10/15 09:53:51;;;;;;;32.30;22.70;;;;;;;-148.88;100.00;74804.41;4973869;28;20105;-88
2022/10/15 09:56:24;;;;;;;32.53;23.40;;;;;;;-148.88;100.00;74794.25;4973772;28;20400;-87
2022/10/15 09:58:56;;;;;;;;;;;;;;;-148.88;100.00;74790.19;4975656;28;20082;-87
2022/10/15 10:01:27;;;;;;;31.85;22.50;;;;;;;-148.88;100.00;74788.16;4974950;28;19910;-86
2022/10/15 10:04:14;;;;;;;35.05;24.98;;;;;;;-148.88;100.00;74788.16;4973901;28;20126;-86
2022/10/15 10:06:54;;;;;;;31.85;22.35;;;;;;;-148.88;100.00;74784.09;4966523;28;20035;-86
2022/10/15 10:09:23;;;;;;;30.02;22.40;;;;;;;-148.88;100.00;74794.25;4974344;28;20019;-87
2022/10/15 10:12:01;;;;;;;33.28;23.90;;;;;;;-148.88;100.00;74778.00;4974012;28;20054;-85
2022/10/15 10:14:41;;;;;;;28.48;21.13;;;;;;;-148.88;100.00;74769.88;4975946;28;20540;-85
2022/10/15 10:17:20;;;;;;;28.10;21.42;;;;;;;-148.88;99.76;74778.00;4978010;28;20478;-84
2022/10/15 10:20:08;;;;;;;28.75;20.65;;;;;;;-148.88;98.75;74765.81;4977276;28;20031;-86
2022/10/15 10:22:48;;;;;;;26.60;19.85;;;;;;;-148.88;99.46;74767.84;4979663;28;20355;-85
2022/10/15 10:25:26;;;;;;;31.50;23.27;;;;;;;-148.88;99.45;74773.94;4980568;28;20031;-84
2022/10/15 10:27:53;;;;;;;32.00;23.30;;;;;;;-148.88;99.59;74780.03;4978638;28;20031;-87
2022/10/15 10:30:18;;;;;;;29.88;21.98;;;;;;;-148.88;99.13;74782.06;4977479;28;20050;-86
2022/10/15 10:32:45;;;;;;;28.35;21.25;;;;;;;-148.88;99.84;74788.16;4979626;28;20034;-85
2022/10/15 10:35:22;;;;;;;31.90;22.20;;;;;;;-148.88;100.00;74794.25;4979231;28;20018;-84
2022/10/15 10:37:48;;;;;;;28.88;20.85;;;;;;;-148.88;100.00;74794.25;4980045;28;20030;-85
2022/10/15 10:40:26;;;;;;;28.77;21.50;;;;;;;-148.88;100.00;74790.19;4978786;28;20085;-85
2022/10/15 10:43:18;;;;;;;31.63;22.38;;;;;;;-148.88;100.00;74788.16;4977853;28;20033;-85
2022/10/15 10:45:53;;;;;;;31.17;22.20;;;;;;;-148.88;100.00;74780.03;4979396;28;20038;-85
2022/10/15 10:48:23;;;;;;;30.60;22.38;;;;;;;-148.88;100.00;74782.06;4977801;28;20502;-85
2022/10/15 10:51:04;;;;;;;30.05;21.65;;;;;;;-148.88;100.00;74773.94;4980742;28;20058;-85
2022/10/15 10:53:48;;;;;;;30.35;21.40;;;;;;;-148.88;100.00;74767.84;4978005;28;20023;-84
2022/10/15 10:56:18;;;;;;;25.95;18.48;;;;;;;-148.88;99.41;74757.69;4976928;28;20038;-88
2022/10/15 10:58:43;;;;;;;24.55;17.65;;;;;;;-148.88;99.40;74745.50;4978132;28;20377;-86
2022/10/15 11:01:12;;;;;;;28.83;17.45;;;;;;;-148.88;100.00;74678.50;4978349;28;20034;-85
2022/10/15 11:03:41;;;;;;;23.35;15.88;;;;;;;-148.88;97.30;74605.38;4976621;28;20030;-85
2022/10/15 11:06:28;;;;;;;20.83;15.18;;;;;;;-148.88;92.60;74566.81;4978259;28;20027;-89
2022/10/15 11:09:30;;;;;;;20.45;15.13;;;;;;;-148.88;93.46;74489.66;4977027;28;20450;-88
2022/10/15 11:12:26;;;;;;;21.13;14.00;;;;;;;-148.88;88.53;74453.09;4977780;28;20107;-85
2022/10/15 11:14:58;;;;;;;19.10;13.50;;;;;;;-148.88;91.17;74408.44;4979792;28;20362;-86